createdAt,value
2023-04-15T00:01:43.169Z,64.64
2023-04-15T00:04:14.604Z,64.72
2023-04-15T00:06:51.673Z,64.46
2023-04-15T00:09:23.464Z,64.39
2023-04-15T00:11:55.216Z,64.59
2023-04-15T00:14:26.905Z,64.37
2023-04-15T00:16:58.601Z,64.16
2023-04-15T00:19:30.094Z,64.79
2023-04-15T00:22:01.780Z,64.71
2023-04-15T00:24:33.237Z,65.07
2023-04-15T00:27:04.681Z,64.43
2023-04-15T00:29:36.303Z,64.47
2023-04-15T00:32:07.873Z,64.45
2023-04-15T00:34:39.262Z,64.64
2023-04-15T00:37:11.502Z,64.57
2023-04-15T00:39:42.992Z,64.45
2023-04-15T00:42:14.976Z,64.42
2023-04-15T00:44:46.239Z,64.73
2023-04-15T00:47:19.138Z,65.00
2023-04-15T00:49:50.764Z,65.43
2023-04-15T00:52:22.414Z,65.16
2023-04-15T00:54:54.034Z,65.92
2023-04-15T00:57:26.172Z,65.67
2023-04-15T00:59:59.380Z,65.74
2023-04-15T01:02:31.049Z,65.58
2023-04-15T01:05:02.502Z,65.38
2023-04-15T01:07:34.066Z,65.10
2023-04-15T01:10:06.476Z,65.16
2023-04-15T01:12:38.117Z,65.52
2023-04-15T01:15:11.886Z,65.38
2023-04-15T01:17:43.777Z,65.12
2023-04-15T01:20:16.360Z,65.08
2023-04-15T01:22:48.156Z,64.90
2023-04-15T01:25:24.323Z,65.49
2023-04-15T01:27:55.793Z,65.66
2023-04-15T01:30:27.612Z,65.67
2023-04-15T01:32:58.984Z,66.43
2023-04-15T01:35:30.595Z,66.14
2023-04-15T01:38:06.767Z,66.06
2023-04-15T01:40:38.298Z,66.68
2023-04-15T01:43:09.599Z,67.46
2023-04-15T01:45:41.185Z,68.48
2023-04-15T01:48:12.673Z,68.96
2023-04-15T01:50:44.202Z,69.09
2023-04-15T01:53:16.194Z,69.35
2023-04-15T01:55:47.684Z,69.07
2023-04-15T01:58:19.292Z,69.27
2023-04-15T02:00:50.855Z,70.21
2023-04-15T02:03:22.725Z,70.08
2023-04-15T02:05:54.263Z,69.79
2023-04-15T02:08:25.569Z,70.29
2023-04-15T02:10:57.066Z,70.89
2023-04-15T02:13:28.779Z,71.81
2023-04-15T02:16:00.760Z,72.79
2023-04-15T02:18:32.207Z,73.64
2023-04-15T02:21:06.555Z,74.30
2023-04-15T02:23:38.057Z,74.86
2023-04-15T02:26:09.663Z,75.82
2023-04-15T02:28:41.100Z,76.33
2023-04-15T02:31:12.387Z,76.21
2023-04-15T02:33:43.944Z,76.57
2023-04-15T02:36:15.375Z,77.63
2023-04-15T02:38:46.767Z,78.47
2023-04-15T02:41:18.139Z,79.25
2023-04-15T02:43:49.548Z,79.24
2023-04-15T02:46:23.201Z,79.67
2023-04-15T02:48:54.891Z,80.02
2023-04-15T02:51:26.338Z,80.55
2023-04-15T02:53:58.335Z,80.28
2023-04-15T02:56:30.588Z,80.69
2023-04-15T02:59:02.349Z,80.92
2023-04-15T03:01:33.686Z,80.92
2023-04-15T03:04:05.313Z,81.07
2023-04-15T03:06:36.886Z,81.14
2023-04-15T03:09:08.344Z,80.89
2023-04-15T03:11:41.840Z,81.06
2023-04-15T03:14:13.471Z,81.41
2023-04-15T03:16:44.852Z,81.09
2023-04-15T03:19:16.369Z,81.13
2023-04-15T03:21:47.606Z,80.82
2023-04-15T03:24:19.010Z,81.37
2023-04-15T03:26:50.521Z,82.07
2023-04-15T03:29:21.874Z,81.98
2023-04-15T03:31:53.602Z,81.73
2023-04-15T03:34:24.952Z,81.81
2023-04-15T03:36:56.494Z,82.08
2023-04-15T03:39:28.677Z,83.02
2023-04-15T03:42:10.222Z,83.09
2023-04-15T03:44:51.408Z,82.83
2023-04-15T03:47:30.282Z,83.08
2023-04-15T03:50:12.946Z,83.04
2023-04-15T03:52:57.139Z,83.24
2023-04-15T03:55:37.951Z,82.92
2023-04-15T03:58:18.827Z,82.76
2023-04-15T04:00:50.323Z,82.74
2023-04-15T04:03:22.014Z,82.45
2023-04-15T04:05:54.162Z,82.10
2023-04-15T04:08:25.446Z,81.66
2023-04-15T04:10:57.427Z,81.45
2023-04-15T04:13:28.821Z,81.67
2023-04-15T04:16:00.432Z,82.04
2023-04-15T04:18:31.915Z,82.19
2023-04-15T04:21:03.697Z,82.26
2023-04-15T04:23:35.208Z,82.19
2023-04-15T04:26:06.470Z,82.51
2023-04-15T04:28:39.829Z,83.13
2023-04-15T04:31:11.677Z,83.30
2023-04-15T04:33:43.378Z,83.04
2023-04-15T04:36:14.813Z,83.26
2023-04-15T04:38:46.211Z,83.09
2023-04-15T04:41:17.868Z,83.37
2023-04-15T04:43:49.315Z,83.36
2023-04-15T04:46:20.908Z,83.10
2023-04-15T04:48:52.246Z,83.32
2023-04-15T04:51:23.583Z,83.14
2023-04-15T04:53:55.374Z,83.08
2023-04-15T04:56:26.717Z,83.19
2023-04-15T04:58:58.387Z,83.22
2023-04-15T05:01:29.953Z,83.62
2023-04-15T05:04:01.595Z,83.68
2023-04-15T05:06:33.463Z,84.02
2023-04-15T05:09:04.951Z,84.14
2023-04-15T05:11:36.523Z,83.81
2023-04-15T05:14:07.840Z,83.57
2023-04-15T05:16:39.072Z,83.83
2023-04-15T05:19:10.923Z,83.36
2023-04-15T05:21:42.299Z,83.61
2023-04-15T05:24:13.830Z,84.01
2023-04-15T05:26:45.202Z,84.52
2023-04-15T05:29:16.568Z,84.63
2023-04-15T05:31:48.063Z,84.57
2023-04-15T05:34:19.610Z,84.46
2023-04-15T05:36:51.119Z,84.57
2023-04-15T05:39:22.591Z,84.73
2023-04-15T05:41:54.027Z,84.50
2023-04-15T05:44:25.966Z,84.27
2023-04-15T05:46:57.396Z,84.56
2023-04-15T05:49:29.102Z,84.73
2023-04-15T05:52:00.476Z,84.76
2023-04-15T05:54:31.970Z,84.85
2023-04-15T05:57:03.468Z,85.04
2023-04-15T05:59:34.930Z,85.01
2023-04-15T06:02:06.543Z,85.21
2023-04-15T06:04:38.852Z,84.76
2023-04-15T06:07:10.310Z,85.23
2023-04-15T06:09:42.057Z,85.16
2023-04-15T06:12:13.509Z,85.06
2023-04-15T06:14:44.980Z,85.07
2023-04-15T06:17:18.750Z,84.94
2023-04-15T06:19:55.681Z,85.23
2023-04-15T06:22:27.255Z,85.05
2023-04-15T06:24:58.650Z,84.64
2023-04-15T06:27:30.105Z,84.50
2023-04-15T06:30:01.663Z,84.78
2023-04-15T06:32:33.867Z,84.78
2023-04-15T06:35:05.746Z,84.53
2023-04-15T06:37:37.385Z,84.09
2023-04-15T06:40:11.451Z,84.35
2023-04-15T06:42:42.769Z,84.34
2023-04-15T06:45:15.030Z,84.32
2023-04-15T06:47:47.072Z,84.61
2023-04-15T06:50:18.633Z,84.78
2023-04-15T06:52:50.194Z,84.61
2023-04-15T06:55:21.726Z,84.73
2023-04-15T06:57:53.255Z,85.06
2023-04-15T07:00:25.781Z,85.27
2023-04-15T07:02:57.404Z,85.01
2023-04-15T07:05:28.896Z,85.12
2023-04-15T07:08:00.633Z,85.21
2023-04-15T07:10:31.981Z,85.38
2023-04-15T07:13:03.497Z,85.39
2023-04-15T07:15:34.916Z,85.36
2023-04-15T07:18:07.087Z,85.43
2023-04-15T07:20:38.689Z,85.67
2023-04-15T07:23:10.216Z,85.48
2023-04-15T07:25:41.623Z,85.39
2023-04-15T07:28:13.150Z,85.53
2023-04-15T07:30:44.496Z,85.21
2023-04-15T07:33:16.095Z,84.82
2023-04-15T07:35:48.088Z,85.00
2023-04-15T07:38:19.451Z,85.02
2023-04-15T07:40:51.269Z,85.02
2023-04-15T07:43:23.146Z,84.97
2023-04-15T07:45:54.659Z,84.92
2023-04-15T07:48:26.176Z,84.96
2023-04-15T07:50:57.968Z,84.54
2023-04-15T07:53:29.743Z,84.01
2023-04-15T07:56:01.571Z,84.04
2023-04-15T07:58:33.423Z,84.28
2023-04-15T08:01:06.165Z,84.79
2023-04-15T08:03:37.929Z,85.18
2023-04-15T08:06:09.807Z,85.27
2023-04-15T08:08:43.410Z,85.83
2023-04-15T08:11:16.575Z,85.41
2023-04-15T08:13:48.416Z,85.21
2023-04-15T08:16:23.286Z,84.98
2023-04-15T08:18:57.068Z,84.84
2023-04-15T08:21:31.137Z,84.68
2023-04-15T08:24:04.231Z,84.73
2023-04-15T08:26:36.004Z,84.52
2023-04-15T08:29:07.710Z,84.57
2023-04-15T08:31:39.553Z,84.00
2023-04-15T08:34:11.084Z,84.13
2023-04-15T08:36:42.886Z,84.64
2023-04-15T08:39:14.578Z,85.29
2023-04-15T08:41:50.069Z,85.96
2023-04-15T08:44:22.750Z,86.69
2023-04-15T08:46:55.004Z,86.73
2023-04-15T08:49:28.889Z,86.46
2023-04-15T08:52:02.086Z,87.01
2023-04-15T08:54:34.005Z,86.42
2023-04-15T08:57:05.917Z,86.37
2023-04-15T08:59:37.452Z,86.07
2023-04-15T09:02:09.487Z,85.70
2023-04-15T09:04:41.708Z,85.27
2023-04-15T09:07:13.248Z,84.99
2023-04-15T09:09:44.612Z,85.15
2023-04-15T09:12:17.306Z,84.94
2023-04-15T09:14:49.737Z,85.38
2023-04-15T09:17:23.046Z,85.62
2023-04-15T09:20:12.034Z,86.11
2023-04-15T09:22:44.513Z,86.10
2023-04-15T09:25:34.815Z,86.58
2023-04-15T09:28:08.678Z,86.54
2023-04-15T09:30:40.260Z,85.61
2023-04-15T09:33:12.421Z,86.11
2023-04-15T09:35:44.150Z,86.30
2023-04-15T09:38:16.143Z,85.89
2023-04-15T09:40:47.648Z,85.55
2023-04-15T09:43:19.294Z,85.72
2023-04-15T09:45:55.964Z,86.06
2023-04-15T09:48:29.289Z,85.51
2023-04-15T09:51:03.062Z,85.23
2023-04-15T09:53:39.277Z,85.84
2023-04-15T09:56:12.414Z,86.21
2023-04-15T09:58:44.532Z,86.04
2023-04-15T10:01:16.022Z,86.02
2023-04-15T10:03:48.913Z,85.46
2023-04-15T10:06:20.873Z,85.13
2023-04-15T10:08:52.423Z,85.82
2023-04-15T10:11:24.997Z,85.58
2023-04-15T10:13:57.908Z,84.93
2023-04-15T10:16:31.497Z,85.14
2023-04-15T10:19:05.910Z,85.36
2023-04-15T10:21:39.199Z,85.37
2023-04-15T10:24:11.483Z,86.11
2023-04-15T10:26:43.553Z,86.69
2023-04-15T10:29:16.078Z,87.52
2023-04-15T10:31:48.033Z,87.38
2023-04-15T10:34:20.507Z,87.44
2023-04-15T10:36:52.642Z,87.82
2023-04-15T10:39:47.081Z,88.12
2023-04-15T10:42:20.984Z,88.21
2023-04-15T10:45:03.889Z,88.97
2023-04-15T10:47:35.905Z,88.77
2023-04-15T10:50:08.680Z,88.57
2023-04-15T10:52:45.311Z,87.81
2023-04-15T10:55:21.367Z,87.17
2023-04-15T10:58:01.949Z,86.96
2023-04-15T11:00:40.144Z,86.87
2023-04-15T11:03:12.529Z,86.56
2023-04-15T11:06:04.325Z,86.21
2023-04-15T11:09:02.853Z,85.12
2023-04-15T11:12:10.023Z,84.41
2023-04-15T11:14:54.139Z,84.22
2023-04-15T11:17:32.001Z,84.14
2023-04-15T11:20:05.823Z,84.19
2023-04-15T11:22:37.770Z,85.12
2023-04-15T11:25:10.250Z,84.94
2023-04-15T11:27:41.809Z,85.26
2023-04-15T11:30:24.601Z,85.42
2023-04-15T11:33:00.146Z,85.06
2023-04-15T11:35:31.858Z,84.14
2023-04-15T11:38:07.065Z,84.63
2023-04-15T11:40:39.470Z,84.87
2023-04-15T11:43:13.410Z,84.40
2023-04-15T11:45:56.171Z,84.13
2023-04-15T11:48:29.345Z,83.04
2023-04-15T11:51:01.959Z,82.99
2023-04-15T11:53:42.440Z,82.66
2023-04-15T11:56:19.997Z,82.62
2023-04-15T11:58:53.645Z,83.13
2023-04-15T12:01:35.454Z,83.21
2023-04-15T12:04:15.026Z,82.77
2023-04-15T12:06:46.613Z,82.55
2023-04-15T12:09:18.361Z,83.15
2023-04-15T12:11:51.613Z,83.41
2023-04-15T12:14:29.304Z,82.69
2023-04-15T12:17:02.566Z,82.54
2023-04-15T12:19:36.853Z,82.53
2023-04-15T12:22:10.614Z,83.01
2023-04-15T12:24:44.326Z,82.82
2023-04-15T12:27:17.229Z,82.05
2023-04-15T12:29:48.738Z,81.66
2023-04-15T12:32:22.191Z,81.66
2023-04-15T12:34:55.548Z,81.08
2023-04-15T12:37:27.521Z,81.82
2023-04-15T12:39:59.004Z,81.60
2023-04-15T12:42:31.905Z,80.92
2023-04-15T12:45:03.386Z,81.72
2023-04-15T12:47:35.106Z,81.77
2023-04-15T12:50:07.542Z,81.71
2023-04-15T12:52:39.074Z,80.01
2023-04-15T12:55:12.683Z,78.93
2023-04-15T12:57:44.625Z,79.59
2023-04-15T13:00:19.090Z,79.63
2023-04-15T13:02:51.209Z,79.91
2023-04-15T13:05:22.772Z,79.28
2023-04-15T13:07:54.420Z,79.17
2023-04-15T13:10:25.962Z,79.43
2023-04-15T13:12:58.175Z,79.49
2023-04-15T13:15:29.626Z,78.27
2023-04-15T13:18:01.486Z,77.96
2023-04-15T13:20:33.122Z,78.08
2023-04-15T13:23:04.687Z,78.01
2023-04-15T13:25:36.635Z,78.00
2023-04-15T13:28:08.125Z,78.24
2023-04-15T13:30:40.989Z,75.88
2023-04-15T13:33:12.433Z,75.32
2023-04-15T13:35:44.601Z,75.84
2023-04-15T13:38:16.220Z,76.14
2023-04-15T13:40:47.912Z,75.52
2023-04-15T13:43:19.749Z,75.16
2023-04-15T13:45:51.767Z,75.55
2023-04-15T13:48:23.266Z,74.48
2023-04-15T13:50:54.620Z,74.64
2023-04-15T13:53:33.994Z,75.05
2023-04-15T13:56:12.089Z,74.01
2023-04-15T13:58:44.571Z,73.49
2023-04-15T14:01:16.763Z,74.69
2023-04-15T14:03:48.310Z,72.90
2023-04-15T14:06:20.008Z,71.08
2023-04-15T14:08:53.094Z,71.91
2023-04-15T14:11:24.870Z,71.62
2023-04-15T14:13:56.353Z,70.43
2023-04-15T14:16:27.844Z,70.40
2023-04-15T14:19:00.234Z,70.59
2023-04-15T14:21:32.908Z,70.36
2023-04-15T14:24:04.308Z,70.49
2023-04-15T14:26:35.897Z,70.59
2023-04-15T14:29:07.477Z,69.60
2023-04-15T14:31:38.920Z,69.92
2023-04-15T14:34:13.152Z,69.73
2023-04-15T14:36:45.103Z,69.48
2023-04-15T14:39:17.443Z,68.43
2023-04-15T14:41:49.807Z,68.47
2023-04-15T14:44:21.761Z,68.42
2023-04-15T14:46:54.978Z,68.79
2023-04-15T14:49:27.008Z,69.60
2023-04-15T14:51:58.421Z,69.05
2023-04-15T14:54:30.310Z,68.36
2023-04-15T14:57:03.295Z,68.24
2023-04-15T14:59:34.925Z,68.54
2023-04-15T15:02:06.937Z,68.46
2023-04-15T15:04:40.938Z,67.71
2023-04-15T15:07:12.509Z,68.37
2023-04-15T15:09:43.974Z,68.86
2023-04-15T15:12:16.534Z,68.86
2023-04-15T15:14:48.093Z,68.74
2023-04-15T15:17:20.942Z,67.42
2023-04-15T15:19:54.606Z,67.03
2023-04-15T15:22:26.353Z,66.74
2023-04-15T15:25:00.512Z,66.05
2023-04-15T15:27:32.498Z,65.13
2023-04-15T15:30:04.409Z,65.52
2023-04-15T15:32:36.045Z,65.84
2023-04-15T15:35:08.675Z,66.34
2023-04-15T15:37:41.091Z,67.10
2023-04-15T15:40:15.324Z,67.63
2023-04-15T15:42:50.119Z,66.98
2023-04-15T15:45:22.301Z,66.92
2023-04-15T15:47:54.850Z,66.09
2023-04-15T15:50:26.789Z,67.12
2023-04-15T15:52:59.033Z,67.25
2023-04-15T15:55:30.817Z,66.88
2023-04-15T15:58:02.478Z,66.92
2023-04-15T16:00:34.046Z,67.32
2023-04-15T16:03:07.182Z,66.80
2023-04-15T16:05:40.005Z,67.38
2023-04-15T16:08:11.596Z,68.01
2023-04-15T16:10:43.262Z,68.08
2023-04-15T16:13:14.825Z,66.69
2023-04-15T16:15:46.511Z,64.67
2023-04-15T16:18:18.093Z,64.71
2023-04-15T16:20:49.593Z,64.17
2023-04-15T16:23:24.237Z,63.64
2023-04-15T16:25:54.278Z,64.63
2023-04-15T16:28:27.542Z,64.92
2023-04-15T16:30:59.077Z,65.81
2023-04-15T16:33:31.406Z,65.70
2023-04-15T16:36:03.249Z,65.45
2023-04-15T16:38:35.156Z,66.25
2023-04-15T16:41:07.265Z,67.01
2023-04-15T16:43:39.853Z,66.55
2023-04-15T16:46:11.854Z,66.99
2023-04-15T16:48:43.675Z,67.19
2023-04-15T16:51:15.232Z,67.60
2023-04-15T16:53:47.293Z,67.83
2023-04-15T16:56:19.175Z,67.63
2023-04-15T16:58:50.519Z,67.32
2023-04-15T17:01:23.310Z,67.91
2023-04-15T17:03:56.121Z,67.86
2023-04-15T17:06:28.643Z,68.45
2023-04-15T17:09:00.191Z,68.61
2023-04-15T17:11:33.266Z,69.55
2023-04-15T17:14:05.576Z,69.98
2023-04-15T17:16:37.740Z,70.16
2023-04-15T17:19:12.649Z,70.11
2023-04-15T17:21:44.818Z,70.31
2023-04-15T17:24:17.032Z,69.98
2023-04-15T17:26:49.796Z,70.49
2023-04-15T17:29:21.488Z,71.00
2023-04-15T17:31:53.163Z,71.49
2023-04-15T17:34:25.450Z,70.95
2023-04-15T17:37:20.934Z,70.57
2023-04-15T17:39:53.070Z,70.80
2023-04-15T17:42:27.726Z,70.42
2023-04-15T17:45:04.112Z,70.34
2023-04-15T17:47:37.877Z,70.51
2023-04-15T17:50:11.262Z,70.25
2023-04-15T17:52:44.331Z,69.76
2023-04-15T17:55:23.164Z,70.05
2023-04-15T17:58:02.462Z,70.11
2023-04-15T18:00:34.653Z,69.66
2023-04-15T18:03:08.474Z,69.82
2023-04-15T18:05:42.676Z,70.40
2023-04-15T18:08:15.100Z,70.78
2023-04-15T18:10:47.851Z,71.03
2023-04-15T18:13:21.973Z,70.89
2023-04-15T18:15:54.295Z,71.34
2023-04-15T18:18:29.293Z,71.41
2023-04-15T18:21:02.889Z,71.21
2023-04-15T18:23:35.691Z,71.74
2023-04-15T18:26:09.041Z,71.35
2023-04-15T18:28:41.957Z,71.04
2023-04-15T18:31:13.963Z,71.11
2023-04-15T18:33:46.629Z,71.62
2023-04-15T18:36:19.095Z,71.79
2023-04-15T18:38:52.124Z,71.59
2023-04-15T18:41:26.028Z,71.53
2023-04-15T18:43:59.755Z,71.55
2023-04-15T18:46:33.567Z,71.17
2023-04-15T18:49:10.465Z,71.06
2023-04-15T18:51:43.312Z,71.76
2023-04-15T18:54:16.244Z,71.87
2023-04-15T18:56:49.393Z,72.03
2023-04-15T18:59:30.099Z,72.39
2023-04-15T19:02:04.448Z,72.05
2023-04-15T19:04:37.540Z,72.27
2023-04-15T19:07:13.585Z,72.58
2023-04-15T19:09:48.230Z,72.46
2023-04-15T19:12:18.517Z,72.22
2023-04-15T19:14:51.709Z,72.50
2023-04-15T19:17:26.241Z,73.02
2023-04-15T19:20:00.007Z,73.05
2023-04-15T19:22:38.988Z,73.31
2023-04-15T19:25:16.786Z,73.18
2023-04-15T19:27:48.866Z,72.67
2023-04-15T19:30:22.751Z,72.05
2023-04-15T19:32:56.150Z,71.90
2023-04-15T19:35:27.841Z,71.98
2023-04-15T19:38:05.810Z,72.24
2023-04-15T19:40:41.202Z,72.93
2023-04-15T19:43:18.144Z,72.90
2023-04-15T19:45:52.635Z,72.64
2023-04-15T19:48:26.315Z,72.22
2023-04-15T19:50:59.553Z,71.75
2023-04-15T19:53:34.336Z,71.78
2023-04-15T19:56:19.517Z,71.76
2023-04-15T19:58:54.244Z,71.97
2023-04-15T20:01:26.956Z,72.09
2023-04-15T20:04:00.310Z,72.27
2023-04-15T20:06:34.959Z,71.57
2023-04-15T20:09:10.951Z,71.79
2023-04-15T20:12:46.851Z,72.49
2023-04-15T20:14:37.019Z,72.19
2023-04-15T20:17:09.845Z,72.32
2023-04-15T20:19:42.964Z,72.68
2023-04-15T20:22:19.728Z,72.32
2023-04-15T20:24:52.970Z,72.23
2023-04-15T20:27:26.018Z,71.91
2023-04-15T20:29:58.906Z,71.68
2023-04-15T20:32:34.137Z,71.98
2023-04-15T20:35:07.201Z,72.54
2023-04-15T20:37:41.127Z,72.61
2023-04-15T20:40:16.567Z,73.10
2023-04-15T20:42:48.707Z,73.20
2023-04-15T20:45:20.668Z,73.44
2023-04-15T20:47:57.378Z,73.48
2023-04-15T20:50:30.115Z,73.48
2023-04-15T20:53:05.490Z,72.81
2023-04-15T20:55:37.498Z,72.06
2023-04-15T20:58:10.491Z,72.30
2023-04-15T21:00:42.394Z,72.50
2023-04-15T21:03:15.694Z,72.52
2023-04-15T21:05:47.455Z,73.12
2023-04-15T21:08:19.299Z,73.66
2023-04-15T21:10:50.867Z,73.68
2023-04-15T21:13:22.408Z,74.30
2023-04-15T21:15:54.809Z,73.78
2023-04-15T21:18:26.806Z,73.81
2023-04-15T21:21:02.974Z,73.85
2023-04-15T21:23:36.445Z,73.94
2023-04-15T21:26:08.401Z,73.80
2023-04-15T21:28:39.744Z,73.44
2023-04-15T21:31:11.231Z,73.52
2023-04-15T21:33:43.393Z,73.40
2023-04-15T21:36:14.911Z,73.32
2023-04-15T21:38:46.345Z,73.64
2023-04-15T21:41:17.983Z,73.58
2023-04-15T21:43:49.692Z,73.67
2023-04-15T21:46:25.382Z,73.91
2023-04-15T21:48:58.731Z,74.09
2023-04-15T21:51:30.303Z,74.38
2023-04-15T21:54:02.099Z,74.57
2023-04-15T21:56:33.526Z,74.35
2023-04-15T21:59:05.216Z,74.53
2023-04-15T22:01:36.963Z,74.59
2023-04-15T22:04:10.017Z,74.11
2023-04-15T22:06:41.593Z,74.57
2023-04-15T22:09:14.402Z,74.45
2023-04-15T22:11:47.542Z,74.49
2023-04-15T22:14:19.119Z,74.76
2023-04-15T22:16:50.497Z,74.76
2023-04-15T22:19:22.269Z,74.95
2023-04-15T22:21:54.613Z,75.35
2023-04-15T22:24:38.064Z,75.62
2023-04-15T22:27:12.244Z,76.28
2023-04-15T22:29:43.939Z,75.68
2023-04-15T22:32:15.598Z,75.23
2023-04-15T22:34:47.035Z,74.78
2023-04-15T22:37:18.705Z,74.57
2023-04-15T22:39:49.989Z,74.96
2023-04-15T22:42:21.427Z,75.39
2023-04-15T22:44:53.130Z,75.41
2023-04-15T22:47:24.462Z,75.54
2023-04-15T22:49:56.045Z,75.69
2023-04-15T22:52:30.910Z,75.77
2023-04-15T22:55:02.816Z,75.56
2023-04-15T22:57:34.252Z,75.56
2023-04-15T23:00:06.241Z,75.84
2023-04-15T23:02:38.370Z,75.57
2023-04-15T23:05:12.644Z,75.68
2023-04-15T23:07:42.905Z,75.75
2023-04-15T23:10:14.413Z,75.36
2023-04-15T23:12:45.877Z,74.94
2023-04-15T23:15:17.367Z,74.93
2023-04-15T23:17:48.842Z,74.99
2023-04-15T23:20:21.293Z,75.44
2023-04-15T23:22:53.557Z,75.60
2023-04-15T23:25:25.090Z,75.26
2023-04-15T23:27:56.666Z,75.26
2023-04-15T23:30:28.258Z,75.78
2023-04-15T23:32:59.886Z,76.09
2023-04-15T23:35:31.210Z,76.25
2023-04-15T23:38:03.178Z,76.48
2023-04-15T23:40:35.239Z,76.93
2023-04-15T23:43:06.756Z,76.98
2023-04-15T23:45:38.376Z,77.23
2023-04-15T23:48:10.443Z,77.32
2023-04-15T23:50:41.993Z,77.01
2023-04-15T23:53:13.561Z,76.70
2023-04-15T23:55:46.352Z,77.03
2023-04-15T23:58:17.845Z,76.84
